Nearby METAR Reports

 

KFRG - , , USA
Distance from station: SSW 12mi, 20km
Updated: 01/26/2021 12:53pm
Light snow, Overcast
Light snow, Overcast
 Wind from ENE
Wind: ENE 8 mph , 13 km/h
Temperature: 36°F , 2°C
Wind Chill: 30°F , -1°C
Dew Point: 25°F , -4°C
Humidity: 65%
Barometer: 29.95 inHg , 1014.2 hPa
Summary: Light Snow
Clouds: Overcast
Visibility: 6 miles , 10 km
Cloud details: Overcast 2200 ft
2021/01/26 17:53 KFRG 261753Z 07007KT 6SM -SN OVC022 02/M04 A2995 RMK AO2 SNB51 PRESFR SLP141 P0000 60000 T00171039 10022 21006 58031
KISP - , , USA
Distance from station: ESE 14mi, 23km
Updated: 01/26/2021 12:36pm
Light snow, Overcast
Light snow, Overcast
 Wind from E
Wind: E 9 mph , 15 km/h
Temperature: 36°F , 2°C
Wind Chill: 29°F , -2°C
Dew Point: 28°F , -2°C
Humidity: 75%
Barometer: 29.97 inHg , 1014.9 hPa
Summary: Light Snow
Clouds: Overcast
Visibility: 6 miles , 10 km
Cloud details: Partly cloudy 2500 ft
Overcast 4600 ft
2021/01/26 17:36 KISP 261736Z 08008KT 6SM -SN SCT025 OVC046 02/M02 A2997 RMK AO2 PLE34 P0000 T00221022
 
KBDR - , , USA
Distance from station: NNE 21mi, 34km
Updated: 01/26/2021 12:55pm
Snow, Overcast
Snow, Overcast
 Wind from E
Wind: E 14 mph , 22 km/h
Temperature: 32°F , 0°C
Wind Chill: 22°F , -6°C
Dew Point: 25°F , -4°C
Humidity: 75%
Barometer: 29.99 inHg , 1015.6 hPa
Summary: Snow
Clouds: Overcast
Visibility: 1/2 mile , 0.8 km
Cloud details: Overcast 1400 ft
2021/01/26 17:55 KBDR 261755Z 08012KT 1/2SM SN VV014 00/M04 A2999 RMK AO2 P0001 T00001044
KHPN - , , USA
Distance from station: WNW 22mi, 35km
Updated: 01/26/2021 12:35pm
Snow, Mist, Overcast
Snow, Mist, Overcast
 Wind from E
Wind: E 8 mph , 13 km/h
Temperature: 27°F , -3°C
Wind Chill: 19°F , -7°C
Dew Point: 25°F , -4°C
Humidity: 93%
Barometer: 29.95 inHg , 1014.2 hPa
Summary: Snow, Mist
Clouds: Overcast
Visibility: 1/4 mile , 0.4 km
Cloud details: Overcast 300 ft
2021/01/26 17:35 KHPN 261735Z 08007KT 1/4SM SN BR VV003 M03/M04 A2995 RMK AO2 PRESFR P0005 T10281044 RVRNO
 
KHWV - , , USA
Distance from station: ESE 26mi, 41km
Updated: 01/26/2021 11:56am
Overcast
Overcast
 Wind from varies
Wind: varies 6 mph , 9 km/h
Temperature: 37°F , 3°C
Wind Chill: 32°F , 0°C
Dew Point: 25°F , -4°C
Humidity: 60%
Barometer: 30.00 inHg , 1015.9 hPa
Clouds: Overcast
Visibility: 10 miles , 16 km
Cloud details: Few Clouds 2400 ft
Overcast 5000 ft
2021/01/26 16:56 KHWV 261656Z AUTO VRB05KT 10SM FEW024 OVC050 03/M04 A3000 RMK AO2 SLP159 T00281039
KJFK - , , USA
Distance from station: SW 29mi, 46km
Updated: 01/26/2021 12:51pm
Light snow, Mist, Overcast
Light snow, Mist, Overcast
 Wind from ENE
Wind: ENE 12 mph , 19 km/h
Temperature: 32°F , 0°C
Wind Chill: 23°F , -5°C
Dew Point: 28°F , -2°C
Humidity: 87%
Barometer: 29.95 inHg , 1014.2 hPa
Summary: Light snow, Mist
Clouds: Overcast
Visibility: 1 1/4 miles , 2 km
Cloud details: Mostly cloudy 2300 ft
Mostly cloudy 2800 ft
Overcast 4000 ft
2021/01/26 17:51 KJFK 261751Z 06010KT 1 1/4SM R04R/4500VP6000FT -SN BR BKN023 BKN028 OVC040 00/M02 A2995 RMK AO2 SLP140 P0003 60003 T00001022 10022 20000 58033 $
 
KLGA - , , USA
Distance from station: WSW 29mi, 47km
Updated: 01/26/2021 12:51pm
Light snow, Overcast
Light snow, Overcast
 Wind from ENE
Wind: ENE 15 mph , 24 km/h
Temperature: 34°F , 1°C
Wind Chill: 24°F , -4°C
Dew Point: 25°F , -4°C
Humidity: 70%
Barometer: 29.95 inHg , 1014.2 hPa
Summary: Light Snow
Clouds: Overcast
Visibility: 2 1/2 miles , 4 km
Cloud details: Partly cloudy 2500 ft
Mostly cloudy 3300 ft
Overcast 4600 ft
2021/01/26 17:51 KLGA 261751Z 07013KT 2 1/2SM -SN SCT025 BKN033 OVC046 01/M04 A2995 RMK AO2 SLP140 P0001 60001 931000 T00061039 10022 20006 58031